createdAt,value
2022-11-15T00:00:12.046Z,98661.09
2022-11-15T00:02:57.225Z,98661.09
2022-11-15T00:05:43.184Z,98644.63
2022-11-15T00:08:31.451Z,98658.31
2022-11-15T00:11:17.063Z,98667.00
2022-11-15T00:14:05.200Z,98666.06
2022-11-15T00:16:50.150Z,98666.91
2022-11-15T00:19:35.957Z,98673.13
2022-11-15T00:22:21.341Z,98669.53
2022-11-15T00:25:07.089Z,98677.38
2022-11-15T00:27:55.664Z,98659.72
2022-11-15T00:30:40.787Z,98663.19
2022-11-15T00:33:25.966Z,98663.09
2022-11-15T00:36:12.010Z,98649.19
2022-11-15T00:38:57.043Z,98655.97
2022-11-15T00:41:42.406Z,98648.84
2022-11-15T00:44:27.950Z,98646.28
2022-11-15T00:47:14.673Z,98637.63
2022-11-15T00:49:59.699Z,98632.34
2022-11-15T00:52:45.308Z,98637.31
2022-11-15T00:55:30.757Z,98637.38
2022-11-15T00:58:16.047Z,98630.47
2022-11-15T01:01:12.718Z,98627.16
2022-11-15T01:04:01.288Z,98633.59
2022-11-15T01:06:47.182Z,98627.78
2022-11-15T01:09:32.463Z,98614.69
2022-11-15T01:12:17.627Z,98593.66
2022-11-15T01:15:03.954Z,98621.91
2022-11-15T01:17:49.252Z,98626.31
2022-11-15T01:20:34.576Z,98626.31
2022-11-15T01:23:19.792Z,98622.91
2022-11-15T01:26:07.618Z,98618.41
2022-11-15T01:28:53.304Z,98617.66
2022-11-15T01:31:39.085Z,98622.81
2022-11-15T01:34:24.298Z,98618.34
2022-11-15T01:37:09.621Z,98614.00
2022-11-15T01:39:54.932Z,98616.66
2022-11-15T01:42:40.287Z,98614.06
2022-11-15T01:45:26.156Z,98614.91
2022-11-15T01:48:12.058Z,98614.00
2022-11-15T01:50:58.224Z,98604.38
2022-11-15T01:53:47.152Z,98615.94
2022-11-15T01:56:37.157Z,98610.66
2022-11-15T01:59:23.912Z,98598.59
2022-11-15T02:02:09.825Z,98602.75
2022-11-15T02:04:55.544Z,98601.91
2022-11-15T02:07:41.508Z,98596.97
2022-11-15T02:10:26.896Z,98599.44
2022-11-15T02:13:12.148Z,98601.13
2022-11-15T02:16:30.868Z,98593.22
2022-11-15T02:19:28.272Z,98591.47
2022-11-15T02:22:41.091Z,98589.91
2022-11-15T02:26:05.170Z,98586.44
2022-11-15T02:29:11.376Z,98583.69
2022-11-15T02:32:24.885Z,98583.00
2022-11-15T02:35:13.174Z,98581.38
2022-11-15T02:38:04.581Z,98568.31
2022-11-15T02:41:20.933Z,98568.06
2022-11-15T02:44:15.369Z,98568.84
2022-11-15T02:47:16.174Z,98569.69
2022-11-15T02:50:11.170Z,98574.09
2022-11-15T02:52:57.309Z,98571.47
2022-11-15T02:55:47.284Z,98565.41
2022-11-15T02:58:58.043Z,98568.91
2022-11-15T03:01:49.425Z,98567.22
2022-11-15T03:04:34.677Z,98564.75
2022-11-15T03:07:33.912Z,98556.84
2022-11-15T03:10:33.620Z,98556.84
2022-11-15T03:13:45.012Z,98562.16
2022-11-15T03:16:50.189Z,98557.91
2022-11-15T03:19:44.148Z,98558.16
2022-11-15T03:22:34.555Z,98549.41
2022-11-15T03:25:23.898Z,98542.38
2022-11-15T03:28:12.485Z,98534.47
2022-11-15T03:31:01.243Z,98535.31
2022-11-15T03:33:46.402Z,98536.16
2022-11-15T03:36:34.682Z,98529.09
2022-11-15T03:39:20.991Z,98537.16
2022-11-15T03:42:19.119Z,98530.06
2022-11-15T03:45:16.804Z,98529.19
2022-11-15T03:48:14.632Z,98527.47
2022-11-15T03:51:00.335Z,98524.22
2022-11-15T03:53:46.493Z,98541.75
2022-11-15T03:56:32.034Z,98540.13
2022-11-15T03:59:17.536Z,98530.38
2022-11-15T04:02:02.826Z,98516.34
2022-11-15T04:04:48.106Z,98514.56
2022-11-15T04:07:33.422Z,98522.16
2022-11-15T04:10:19.543Z,98510.69
2022-11-15T04:13:05.166Z,98505.25
2022-11-15T04:15:50.244Z,98491.72
2022-11-15T04:18:35.467Z,98503.50
2022-11-15T04:21:39.118Z,98500.91
2022-11-15T04:24:24.237Z,98502.72
2022-11-15T04:27:09.610Z,98503.78
2022-11-15T04:29:54.920Z,98495.13
2022-11-15T04:32:40.439Z,98502.25
2022-11-15T04:35:25.897Z,98500.63
2022-11-15T04:38:11.983Z,98496.31
2022-11-15T04:40:57.324Z,98486.78
2022-11-15T04:43:42.551Z,98487.63
2022-11-15T04:46:28.217Z,98473.69
2022-11-15T04:49:13.850Z,98464.78
2022-11-15T04:51:59.775Z,98471.00
2022-11-15T04:54:45.739Z,98474.53
2022-11-15T04:57:30.967Z,98467.75
2022-11-15T05:00:18.085Z,98472.44
2022-11-15T05:03:22.634Z,98476.19
2022-11-15T05:06:08.111Z,98468.53
2022-11-15T05:08:53.998Z,98470.22
2022-11-15T05:11:39.479Z,98468.59
2022-11-15T05:14:24.949Z,98476.34
2022-11-15T05:17:10.146Z,98466.66
2022-11-15T05:19:55.466Z,98462.25
2022-11-15T05:22:41.362Z,98464.88
2022-11-15T05:25:27.201Z,98462.56
2022-11-15T05:28:12.360Z,98462.31
2022-11-15T05:31:09.271Z,98458.00
2022-11-15T05:33:56.002Z,98449.94
2022-11-15T05:36:48.414Z,98453.34
2022-11-15T05:39:34.090Z,98450.78
2022-11-15T05:42:20.631Z,98453.34
2022-11-15T05:45:09.513Z,98460.47
2022-11-15T05:47:58.570Z,98456.97
2022-11-15T05:50:47.455Z,98451.72
2022-11-15T05:53:34.063Z,98452.50
2022-11-15T05:56:19.883Z,98451.66
2022-11-15T05:59:05.564Z,98459.38
2022-11-15T06:01:52.267Z,98470.81
2022-11-15T06:04:37.749Z,98462.78
2022-11-15T06:07:23.155Z,98456.59
2022-11-15T06:10:09.326Z,98448.69
2022-11-15T06:13:02.699Z,98448.75
2022-11-15T06:15:48.509Z,98453.88
2022-11-15T06:18:35.193Z,98447.75
2022-11-15T06:21:20.517Z,98458.22
2022-11-15T06:24:06.452Z,98466.97
2022-11-15T06:26:51.861Z,98471.22
2022-11-15T06:29:36.931Z,98460.00
2022-11-15T06:32:22.265Z,98470.22
2022-11-15T06:35:07.817Z,98457.81
2022-11-15T06:37:52.840Z,98463.16
2022-11-15T06:40:39.450Z,98472.06
2022-11-15T06:43:24.579Z,98467.91
2022-11-15T06:46:10.445Z,98481.91
2022-11-15T06:48:55.524Z,98480.19
2022-11-15T06:51:40.881Z,98475.94
2022-11-15T06:54:26.074Z,98475.19
2022-11-15T06:57:11.485Z,98465.50
2022-11-15T06:59:56.695Z,98468.91
2022-11-15T07:02:42.129Z,98472.44
2022-11-15T07:05:28.333Z,98474.19
2022-11-15T07:08:13.315Z,98460.75
2022-11-15T07:11:04.338Z,98463.22
2022-11-15T07:13:49.472Z,98458.84
2022-11-15T07:16:34.647Z,98463.78
2022-11-15T07:19:20.059Z,98464.56
2022-11-15T07:22:05.475Z,98467.03
2022-11-15T07:24:50.964Z,98465.91
2022-11-15T07:27:36.468Z,98470.25
2022-11-15T07:30:21.992Z,98468.25
2022-11-15T07:33:08.639Z,98460.94
2022-11-15T07:35:54.360Z,98453.81
2022-11-15T07:38:42.751Z,98455.19
2022-11-15T07:41:28.565Z,98442.94
2022-11-15T07:44:13.767Z,98446.00
2022-11-15T07:46:59.208Z,98447.56
2022-11-15T07:49:44.481Z,98437.84
2022-11-15T07:52:29.862Z,98436.50
2022-11-15T07:55:15.316Z,98443.38
2022-11-15T07:58:04.681Z,98451.28
2022-11-15T08:00:49.929Z,98442.47
2022-11-15T08:03:35.849Z,98450.38
2022-11-15T08:06:21.195Z,98449.44
2022-11-15T08:09:06.424Z,98443.16
2022-11-15T08:11:55.228Z,98436.25
2022-11-15T08:14:44.439Z,98439.44
2022-11-15T08:17:33.696Z,98443.56
2022-11-15T08:20:20.498Z,98436.34
2022-11-15T08:23:06.954Z,98441.44
2022-11-15T08:25:54.833Z,98446.63
2022-11-15T08:28:40.076Z,98440.34
2022-11-15T08:31:25.457Z,98438.47
2022-11-15T08:34:10.702Z,98435.00
2022-11-15T08:36:56.011Z,98432.09
2022-11-15T08:39:41.476Z,98439.75
2022-11-15T08:42:26.659Z,98443.16
2022-11-15T08:45:15.946Z,98436.00
2022-11-15T08:48:03.222Z,98431.50
2022-11-15T08:50:48.465Z,98438.19
2022-11-15T08:53:34.869Z,98432.75
2022-11-15T08:56:20.103Z,98441.53
2022-11-15T08:59:05.569Z,98427.41
2022-11-15T09:01:51.119Z,98439.38
2022-11-15T09:04:36.193Z,98440.22
2022-11-15T09:07:21.667Z,98441.06
2022-11-15T09:10:07.272Z,98442.69
2022-11-15T09:12:52.783Z,98437.41
2022-11-15T09:15:37.823Z,98441.59
2022-11-15T09:18:23.758Z,98440.81
2022-11-15T09:21:10.061Z,98441.78
2022-11-15T09:24:01.954Z,98440.06
2022-11-15T09:26:47.338Z,98429.16
2022-11-15T09:29:32.679Z,98431.53
2022-11-15T09:32:18.085Z,98427.53
2022-11-15T09:35:03.983Z,98431.59
2022-11-15T09:37:53.574Z,98428.78
2022-11-15T09:40:41.611Z,98433.88
2022-11-15T09:43:33.771Z,98436.59
2022-11-15T09:46:31.990Z,98427.94
2022-11-15T09:49:18.883Z,98423.69
2022-11-15T09:52:11.007Z,98420.50
2022-11-15T09:54:56.269Z,98409.38
2022-11-15T09:57:50.736Z,98403.75
2022-11-15T10:00:46.492Z,98413.09
2022-11-15T10:03:31.853Z,98414.91
2022-11-15T10:06:03.898Z,98407.63
2022-11-15T10:08:42.778Z,98402.72
2022-11-15T10:14:10.143Z,98382.34
2022-11-15T10:16:52.120Z,98380.19
2022-11-15T10:19:44.656Z,98379.94
2022-11-15T10:22:51.807Z,98365.50
2022-11-15T10:25:22.293Z,98362.56
2022-11-15T10:27:55.729Z,98356.09
2022-11-15T10:30:23.045Z,98372.94
2022-11-15T10:32:50.646Z,98359.34
2022-11-15T10:35:29.134Z,98361.44
2022-11-15T10:38:14.135Z,98344.72
2022-11-15T10:40:45.905Z,98344.84
2022-11-15T10:43:16.727Z,98348.06
2022-11-15T10:45:44.587Z,98333.63
2022-11-15T10:48:14.041Z,98336.75
2022-11-15T10:50:46.115Z,98330.44
2022-11-15T10:53:34.869Z,98327.50
2022-11-15T10:56:12.377Z,98330.16
2022-11-15T10:58:43.451Z,98322.22
2022-11-15T11:01:22.992Z,98319.59
2022-11-15T11:04:04.613Z,98319.28
2022-11-15T11:06:46.800Z,98306.06
2022-11-15T11:09:33.785Z,98297.97
2022-11-15T11:12:01.889Z,98296.09
2022-11-15T11:14:32.477Z,98301.38
2022-11-15T11:17:01.779Z,98298.84
2022-11-15T11:19:40.288Z,98293.38
2022-11-15T11:22:21.305Z,98285.34
2022-11-15T11:25:17.179Z,98274.50
2022-11-15T11:28:10.983Z,98283.19
2022-11-15T11:31:09.034Z,98275.13
2022-11-15T11:33:39.239Z,98263.66
2022-11-15T11:36:23.542Z,98257.41
2022-11-15T11:39:21.855Z,98258.06
2022-11-15T11:41:58.272Z,98254.38
2022-11-15T11:45:04.701Z,98255.97
2022-11-15T11:47:51.427Z,98250.69
2022-11-15T11:50:26.806Z,98242.97
2022-11-15T11:53:09.859Z,98238.63
2022-11-15T11:55:51.131Z,98240.50
2022-11-15T11:58:42.471Z,98239.47
2022-11-15T12:01:12.714Z,98218.34
2022-11-15T12:03:47.138Z,98219.94
2022-11-15T12:06:25.426Z,98208.41
2022-11-15T12:08:59.311Z,98200.41
2022-11-15T12:11:47.637Z,98195.13
2022-11-15T12:14:30.584Z,98182.34
2022-11-15T12:16:58.883Z,98184.69
2022-11-15T12:19:26.465Z,98176.56
2022-11-15T12:21:55.986Z,98183.34
2022-11-15T12:24:40.910Z,98178.34
2022-11-15T12:27:26.323Z,98170.44
2022-11-15T12:30:10.381Z,98160.78
2022-11-15T12:32:39.409Z,98163.63
2022-11-15T12:35:25.700Z,98163.34
2022-11-15T12:37:56.897Z,98171.19
2022-11-15T12:40:33.027Z,98171.34
2022-11-15T12:43:16.418Z,98167.88
2022-11-15T12:45:45.775Z,98174.00
2022-11-15T12:48:18.515Z,98161.66
2022-11-15T12:50:58.232Z,98156.25
2022-11-15T12:53:34.127Z,98157.22
2022-11-15T12:56:04.083Z,98144.84
2022-11-15T12:58:44.242Z,98137.75
2022-11-15T13:01:11.665Z,98142.00
2022-11-15T13:04:13.579Z,98141.91
2022-11-15T13:06:55.541Z,98135.66
2022-11-15T13:09:37.553Z,98136.06
2022-11-15T13:12:31.563Z,98123.06
2022-11-15T13:15:00.456Z,98117.78
2022-11-15T13:17:29.162Z,98120.44
2022-11-15T13:20:18.434Z,98119.69
2022-11-15T13:23:11.579Z,98118.09
2022-11-15T13:26:14.113Z,98113.75
2022-11-15T13:28:50.588Z,98105.09
2022-11-15T13:31:37.323Z,98115.03
2022-11-15T13:34:53.268Z,98105.72
2022-11-15T13:37:22.894Z,98091.75
2022-11-15T13:39:50.522Z,98092.59
2022-11-15T13:42:21.966Z,98090.78
2022-11-15T13:44:57.638Z,98087.31
2022-11-15T13:47:28.140Z,98086.47
2022-11-15T13:49:57.529Z,98083.09
2022-11-15T13:52:32.580Z,98061.06
2022-11-15T13:55:14.339Z,98081.59
2022-11-15T13:57:41.121Z,98072.81
2022-11-15T14:00:27.957Z,98071.03
2022-11-15T14:02:56.452Z,98070.09
2022-11-15T14:05:25.464Z,98059.50
2022-11-15T14:08:01.882Z,98068.50
2022-11-15T14:10:40.034Z,98061.53
2022-11-15T14:13:31.853Z,98052.84
2022-11-15T14:16:20.488Z,98060.97
2022-11-15T14:18:50.428Z,98050.50
2022-11-15T14:21:17.555Z,98045.69
2022-11-15T14:23:44.880Z,98040.16
2022-11-15T14:26:35.759Z,98036.94
2022-11-15T14:29:28.290Z,98047.41
2022-11-15T14:32:13.169Z,98032.06
2022-11-15T14:34:39.901Z,98040.75
2022-11-15T14:37:17.576Z,98026.88
2022-11-15T14:39:44.264Z,98025.97
2022-11-15T14:42:10.964Z,98027.72
2022-11-15T14:44:40.170Z,98026.03
2022-11-15T14:47:09.014Z,98010.19
2022-11-15T14:49:35.800Z,98016.31
2022-11-15T14:52:02.556Z,98013.59
2022-11-15T14:54:29.247Z,98005.75
2022-11-15T14:56:55.945Z,98001.44
2022-11-15T14:59:22.665Z,98004.84
2022-11-15T15:01:49.365Z,97989.00
2022-11-15T15:04:16.068Z,97989.72
2022-11-15T15:06:42.819Z,97985.41
2022-11-15T15:09:09.593Z,97993.53
2022-11-15T15:11:36.282Z,97991.72
2022-11-15T15:14:03.042Z,97990.97
2022-11-15T15:16:29.887Z,97980.63
2022-11-15T15:18:56.764Z,97972.91
2022-11-15T15:21:33.572Z,97974.59
2022-11-15T15:24:04.280Z,97964.03
2022-11-15T15:26:34.671Z,97966.59
2022-11-15T15:29:01.501Z,97961.31
2022-11-15T15:31:28.199Z,97966.50
2022-11-15T15:33:54.883Z,97956.88
2022-11-15T15:36:21.670Z,97958.66
2022-11-15T15:38:48.385Z,97951.72
2022-11-15T15:41:16.999Z,97950.13
2022-11-15T15:43:44.739Z,97956.88
2022-11-15T15:46:14.764Z,97943.66
2022-11-15T15:48:41.700Z,97944.50
2022-11-15T15:51:14.318Z,97942.81
2022-11-15T15:53:46.473Z,97938.38
2022-11-15T15:56:13.222Z,97949.91
2022-11-15T15:58:47.063Z,97945.47
2022-11-15T16:01:17.873Z,97942.00
2022-11-15T16:03:45.624Z,97944.72
2022-11-15T16:06:34.275Z,97937.75
2022-11-15T16:09:14.647Z,97946.53
2022-11-15T16:11:47.431Z,97942.41
2022-11-15T16:14:14.336Z,97936.06
2022-11-15T16:16:41.249Z,97936.91
2022-11-15T16:19:12.018Z,97934.16
2022-11-15T16:21:38.728Z,97929.72
2022-11-15T16:24:05.573Z,97925.41
2022-11-15T16:26:35.805Z,97926.34
2022-11-15T16:29:02.590Z,97914.94
2022-11-15T16:31:29.320Z,97908.81
2022-11-15T16:33:56.098Z,97920.22
2022-11-15T16:36:30.714Z,97917.78
2022-11-15T16:38:58.845Z,97897.22
2022-11-15T16:41:25.940Z,97905.00
2022-11-15T16:43:52.580Z,97900.69
2022-11-15T16:46:19.336Z,97898.97
2022-11-15T16:48:46.662Z,97892.03
2022-11-15T16:51:13.632Z,97901.84
2022-11-15T16:53:40.451Z,97896.69
2022-11-15T16:56:30.872Z,97889.69
2022-11-15T16:58:59.064Z,97881.78
2022-11-15T17:01:28.494Z,97877.75
2022-11-15T17:03:55.653Z,97882.09
2022-11-15T17:06:23.652Z,97876.50
2022-11-15T17:08:50.398Z,97879.88
2022-11-15T17:11:22.389Z,97881.56
2022-11-15T17:13:49.689Z,97877.03
2022-11-15T17:16:18.181Z,97875.34
2022-11-15T17:18:45.889Z,97866.69
2022-11-15T17:21:18.448Z,97874.59
2022-11-15T17:23:45.684Z,97870.28
2022-11-15T17:26:32.029Z,97871.97
2022-11-15T17:29:01.597Z,97873.66
2022-11-15T17:31:30.840Z,97872.72
2022-11-15T17:33:57.625Z,97866.59
2022-11-15T17:36:24.413Z,97869.31
2022-11-15T17:38:58.082Z,97860.88
2022-11-15T17:41:27.160Z,97865.41
2022-11-15T17:43:55.644Z,97867.41
2022-11-15T17:46:22.457Z,97850.28
2022-11-15T17:48:49.448Z,97841.66
2022-11-15T17:51:18.329Z,97848.63
2022-11-15T17:53:46.846Z,97830.78
2022-11-15T17:56:16.250Z,97849.16
2022-11-15T17:58:57.413Z,97837.84
2022-11-15T18:01:29.124Z,97818.44
2022-11-15T18:03:57.243Z,97832.56
2022-11-15T18:06:25.188Z,97823.06
2022-11-15T18:08:55.903Z,97827.09
2022-11-15T18:11:28.075Z,97828.69
2022-11-15T18:13:57.733Z,97828.59
2022-11-15T18:16:26.884Z,97818.13
2022-11-15T18:18:55.053Z,97818.03
2022-11-15T18:21:23.907Z,97817.91
2022-11-15T18:23:56.865Z,97822.34
2022-11-15T18:26:27.641Z,97824.16
2022-11-15T18:28:57.760Z,97827.75
2022-11-15T18:31:27.193Z,97810.22
2022-11-15T18:33:54.777Z,97825.31
2022-11-15T18:36:27.742Z,97811.03
2022-11-15T18:38:59.179Z,97816.22
2022-11-15T18:41:28.746Z,97813.59
2022-11-15T18:43:57.477Z,97809.28
2022-11-15T18:46:28.644Z,97811.78
2022-11-15T18:48:56.228Z,97810.22
2022-11-15T18:51:25.699Z,97814.44
2022-11-15T18:53:54.932Z,97811.91
2022-11-15T18:56:24.726Z,97814.34
2022-11-15T18:58:55.106Z,97812.63
2022-11-15T19:01:26.891Z,97817.91
2022-11-15T19:03:55.998Z,97809.28
2022-11-15T19:06:25.353Z,97821.81
2022-11-15T19:08:54.639Z,97817.41
2022-11-15T19:11:28.682Z,97818.34
2022-11-15T19:13:57.570Z,97811.59
2022-11-15T19:16:24.469Z,97805.44
2022-11-15T19:18:58.809Z,97805.16
2022-11-15T19:21:26.614Z,97803.25
2022-11-15T19:23:54.330Z,97798.06
2022-11-15T19:26:22.692Z,97801.66
2022-11-15T19:28:54.413Z,97795.44
2022-11-15T19:31:23.645Z,97797.22
2022-11-15T19:33:51.403Z,97782.56
2022-11-15T19:36:28.760Z,97793.84
2022-11-15T19:38:57.014Z,97792.25
2022-11-15T19:41:24.800Z,97793.13
2022-11-15T19:43:52.672Z,97782.75
2022-11-15T19:46:23.552Z,97785.22
2022-11-15T19:48:51.805Z,97775.72
2022-11-15T19:51:23.507Z,97786.88
2022-11-15T19:53:53.226Z,97792.06
2022-11-15T19:56:20.409Z,97780.78
2022-11-15T19:58:49.827Z,97792.16
2022-11-15T20:01:19.227Z,97780.88
2022-11-15T20:03:46.815Z,97781.84
2022-11-15T20:06:24.973Z,97773.91
2022-11-15T20:08:52.524Z,97773.06
2022-11-15T20:11:19.979Z,97769.69
2022-11-15T20:13:48.928Z,97772.22
2022-11-15T20:16:22.775Z,97781.00
2022-11-15T20:18:57.583Z,97776.66
2022-11-15T20:21:25.354Z,97774.00
2022-11-15T20:23:52.815Z,97774.66
2022-11-15T20:26:21.553Z,97767.56
2022-11-15T20:28:49.560Z,97756.28
2022-11-15T20:31:17.049Z,97754.38
2022-11-15T20:33:44.402Z,97758.81
2022-11-15T20:36:15.978Z,97747.41
2022-11-15T20:38:43.641Z,97747.41
2022-11-15T20:41:11.448Z,97746.47
2022-11-15T20:43:38.179Z,97749.09
2022-11-15T20:46:05.009Z,97748.25
2022-11-15T20:48:32.405Z,97726.31
2022-11-15T20:51:09.718Z,97743.31
2022-11-15T20:53:36.526Z,97739.81
2022-11-15T20:56:10.520Z,97738.56
2022-11-15T20:58:38.174Z,97738.56
2022-11-15T21:01:06.530Z,97728.22
2022-11-15T21:03:33.991Z,97725.16
2022-11-15T21:06:01.028Z,97725.97
2022-11-15T21:08:27.720Z,97728.84
2022-11-15T21:11:13.660Z,97720.38
2022-11-15T21:13:40.496Z,97725.03
2022-11-15T21:16:07.705Z,97724.50
2022-11-15T21:18:34.599Z,97731.44
2022-11-15T21:21:05.802Z,97725.66
2022-11-15T21:23:32.516Z,97729.34
2022-11-15T21:25:59.555Z,97735.63
2022-11-15T21:28:26.424Z,97732.22
2022-11-15T21:30:55.059Z,97725.38
2022-11-15T21:33:23.836Z,97714.19
2022-11-15T21:35:51.613Z,97712.28
2022-11-15T21:38:18.646Z,97709.72
2022-11-15T21:40:45.989Z,97712.00
2022-11-15T21:43:12.707Z,97700.09
2022-11-15T21:45:39.405Z,97692.88
2022-11-15T21:48:06.391Z,97695.53
2022-11-15T21:50:33.458Z,97693.22
2022-11-15T21:53:00.196Z,97683.38
2022-11-15T21:55:26.920Z,97686.56
2022-11-15T21:57:53.628Z,97683.66
2022-11-15T22:00:38.872Z,97681.88
2022-11-15T22:03:05.602Z,97680.19
2022-11-15T22:05:32.438Z,97675.47
2022-11-15T22:07:59.205Z,97680.53
2022-11-15T22:10:25.904Z,97677.44
2022-11-15T22:12:52.611Z,97684.06
2022-11-15T22:15:19.290Z,97675.59
2022-11-15T22:17:58.130Z,97680.31
2022-11-15T22:23:12.206Z,97676.28
2022-11-15T22:25:38.977Z,97657.22
2022-11-15T22:28:05.783Z,97653.72
2022-11-15T22:30:32.615Z,97644.91
2022-11-15T22:32:59.365Z,97637.66
2022-11-15T22:35:26.243Z,97642.53
2022-11-15T22:37:53.040Z,97638.78
2022-11-15T22:40:19.923Z,97634.25
2022-11-15T22:42:46.765Z,97614.47
2022-11-15T22:45:13.560Z,97618.56
2022-11-15T22:47:40.403Z,97627.84
2022-11-15T22:50:07.772Z,97631.09
2022-11-15T22:52:34.588Z,97623.97
2022-11-15T22:55:01.330Z,97637.13
2022-11-15T22:57:28.658Z,97625.75
2022-11-15T22:59:55.493Z,97625.75
2022-11-15T23:02:22.328Z,97623.03
2022-11-15T23:04:49.220Z,97623.03
2022-11-15T23:07:16.005Z,97612.41
2022-11-15T23:09:45.448Z,97611.56
2022-11-15T23:12:35.814Z,97600.94
2022-11-15T23:15:02.625Z,97599.88
2022-11-15T23:17:29.413Z,97600.63
2022-11-15T23:19:56.173Z,97609.34
2022-11-15T23:22:41.770Z,97598.00
2022-11-15T23:25:08.817Z,97609.56
2022-11-15T23:27:35.543Z,97606.22
2022-11-15T23:30:21.233Z,97585.44
2022-11-15T23:33:06.506Z,97582.63
2022-11-15T23:35:33.331Z,97559.63
2022-11-15T23:38:00.097Z,97583.16
2022-11-15T23:40:26.954Z,97571.03
2022-11-15T23:42:53.721Z,97569.16
2022-11-15T23:45:20.477Z,97567.38
2022-11-15T23:47:47.286Z,97572.72
2022-11-15T23:50:14.101Z,97566.72
2022-11-15T23:52:40.909Z,97558.72
2022-11-15T23:55:08.000Z,97563.22
2022-11-15T23:57:34.769Z,97562.50
